Latest Weather Observations for Townsville

IDQ60801

Issued at 3:42 am EST Wednesday 23 September 2020 (issued every 10 minutes, with the page automatically refreshed every 10 minutes)

About weather observations | Map of weather stations | Latest weather observations for QLD | Other Formats
Station Details ID: 032040 Name: TOWNSVILLE AERO Lat: -19.25 Lon: 146.77 Height: 4.34 m
Data from the previous 72 hours. | See also: Recent months at Townsville
Date/Time
EST
Temp
°C
App
Temp
°C
Dew
Point
°C
Rel
Hum
%
Delta-T
°C
Wind Press
QNH
hPa
Press
MSL
hPa
Rain since
9am
mm
Dir  Spd
km/h
Gust
km/h
Spd
kts
Gust
kts
23/03:30am 22.9 24.9 21.5 92 0.9 NE 13 17 7 9 1014.3 1014.2 0.0
23/03:00am 22.6 25.2 21.9 96 0.5 NE 11 15 6 8 1014.5 1014.4 0.0
23/02:30am 21.8 24.9 21.0 95 0.5 NE 6 7 3 4 1014.8 1014.7 0.0
23/02:00am 21.5 25.6 20.8 96 0.5 CALM 0 0 0 0 1015.2 1015.1 0.0
23/01:57am 21.4 25.5 20.7 96 0.5 CALM 0 0 0 0 1015.2 1015.1 0.0
23/01:30am 21.2 25.3 20.7 97 0.3 CALM 0 0 0 0 1015.4 1015.3 0.0
23/01:23am 21.1 25.0 20.4 96 0.5 CALM 0 0 0 0 1015.4 1015.3 0.0
23/01:00am 21.1 24.9 20.1 94 0.6 CALM 0 0 0 0 1015.4 1015.3 0.0
23/12:30am 21.8 25.8 20.6 93 0.8 CALM 0 0 0 0 1015.5 1015.4 0.0
23/12:00am 22.4 26.6 20.9 91 1.0 CALM 0 0 0 0 1016.0 1015.9 0.0
 
Date/Time
EST
Temp
°C
App
Temp
°C
Dew
Point
°C
Rel
Hum
%
Delta-T
°C
Wind Press
QNH
hPa
Press
MSL
hPa
Rain since
9am
mm
Dir  Spd
km/h
Gust
km/h
Spd
kts
Gust
kts
22/11:30pm 22.6 27.0 21.4 93 0.8 CALM 0 0 0 0 1016.2 1016.1 0.0
22/11:00pm 22.0 24.8 20.8 93 0.8 NNE 7 9 4 5 1016.2 1016.1 0.0
22/10:30pm 22.6 26.3 20.7 89 1.2 NE 2 7 1 4 1016.7 1016.6 0.0
22/10:00pm 22.9 26.8 21.2 90 1.1 NE 2 9 1 5 1017.0 1016.9 0.0
22/09:30pm 22.4 25.3 21.0 92 0.9 N 7 9 4 5 1017.0 1016.9 0.0
22/09:00pm 23.6 26.4 21.5 88 1.4 NE 9 11 5 6 1016.7 1016.6 0.0
22/08:30pm 24.0 25.8 21.9 88 1.4 ENE 15 20 8 11 1016.5 1016.4 0.0
22/08:00pm 24.2 25.9 21.7 86 1.7 ENE 15 17 8 9 1016.2 1016.1 0.0
22/07:30pm 24.3 26.5 21.8 86 1.7 ENE 13 17 7 9 1016.0 1015.9 0.0
22/07:00pm 24.5 26.5 21.6 84 1.9 ENE 13 17 7 9 1015.7 1015.6 0.0
22/06:30pm 24.6 26.5 22.1 86 1.7 ENE 15 20 8 11 1015.4 1015.3 0.0
22/06:00pm 24.9 25.8 22.0 84 1.9 ENE 20 26 11 14 1015.2 1015.1 0.0
22/05:30pm 25.4 25.1 21.9 81 2.3 ENE 26 30 14 16 1014.8 1014.7 0.0
22/05:00pm 26.0 26.1 22.5 81 2.4 ENE 26 32 14 17 1014.5 1014.4 0.0
22/04:42pm 26.3 25.8 22.2 78 2.8 ENE 28 33 15 18 1014.3 1014.2 0.0
22/04:30pm 26.7 26.7 23.0 80 2.5 ENE 28 33 15 18 1014.2 1014.1 0.0
22/04:00pm 26.8 26.4 22.4 77 3.0 NE 28 35 15 19 1013.9 1013.8 0.0
22/03:30pm 27.0 26.1 22.2 75 3.2 ENE 30 35 16 19 1014.0 1013.9 0.0
22/03:00pm 27.5 26.6 22.2 73 3.6 ENE 30 35 16 19 1014.3 1014.2 0.0
22/02:30pm 28.7 27.9 23.1 71 3.8 ENE 32 37 17 20 1014.3 1014.2 0.0
22/02:00pm 27.8 27.0 22.3 72 3.7 ENE 30 37 16 20 1014.7 1014.6 0.0
22/01:30pm 27.8 26.3 22.1 71 3.8 ENE 33 39 18 21 1014.8 1014.7 0.0
22/01:00pm 27.6 26.8 22.3 73 3.6 ENE 30 37 16 20 1015.2 1015.1 0.0
22/12:30pm 28.0 26.9 21.8 69 4.2 ENE 30 35 16 19 1015.6 1015.5 0.0
22/12:00pm 27.8 26.8 21.3 67 4.3 NE 28 33 15 18 1015.9 1015.8 0.0
22/11:30am 28.5 28.1 22.3 69 4.2 NE 28 33 15 18 1016.2 1016.1 0.0
22/11:00am 27.8 27.5 21.8 70 4.0 ENE 26 32 14 17 1016.8 1016.7 0.0
22/10:30am 28.5 29.4 22.7 71 3.9 NE 22 30 12 16 1017.1 1017.0 0.0
22/10:00am 27.6 26.8 20.9 67 4.4 NE 26 32 14 17 1017.3 1017.2 0.0
22/09:30am 28.4 30.4 20.7 63 5.1 ENE 11 22 6 12 1017.4 1017.3 0.0
22/09:00am 27.9 30.8 21.7 69 4.1 ESE 9 15 5 8 1017.7 1017.6 0.0
22/08:30am 26.3 28.8 21.1 73 3.4 SE 9 15 5 8 1017.5 1017.4 0.0
22/08:00am 25.4 27.3 22.1 82 2.2 SE 15 19 8 10 1017.4 1017.3 0.0
22/07:30am 24.6 27.8 22.3 87 1.5 SE 9 13 5 7 1017.1 1017.0 0.0
22/07:00am 24.0 27.2 22.3 90 1.1 SE 9 11 5 6 1016.9 1016.8 0.0
22/06:30am 23.6 26.6 21.9 90 1.1 S 9 9 5 5 1016.6 1016.5 0.0
22/06:00am 23.4 26.0 22.0 92 0.9 SSE 11 13 6 7 1016.2 1016.1 0.0
22/05:34am 22.9 25.6 21.4 91 1.0 SW 9 13 5 7 1015.8 1015.7 0.0
22/05:30am 23.0 25.8 21.5 91 1.0 SW 9 13 5 7 1015.9 1015.8 0.0
22/05:00am 22.9 26.9 21.4 91 1.0 S 2 6 1 3 1015.4 1015.3 0.0
22/04:43am 22.9 26.2 21.4 91 1.0 S 6 7 3 4 1015.4 1015.3 0.0
22/04:31am 22.7 25.9 21.2 91 1.0 S 6 9 3 5 1015.1 1015.0 0.0
22/04:30am 22.7 25.9 21.2 91 1.0 S 6 9 3 5 1015.1 1015.0 0.0
22/04:00am 22.4 25.4 21.2 93 0.8 SW 7 9 4 5 1015.2 1015.1 0.0
22/03:30am 22.4 26.6 21.0 92 0.9 CALM 0 0 0 0 1014.8 1014.7 0.0
22/03:00am 22.2 24.8 21.2 94 0.7 WSW 9 11 5 6 1014.9 1014.8 0.0
22/02:30am 21.7 24.6 21.0 96 0.5 W 7 9 4 5 1015.0 1014.9 0.0
22/02:00am 21.6 24.5 21.1 97 0.3 NW 7 9 4 5 1015.0 1014.9 0.0
22/01:37am 21.4 24.2 20.9 97 0.3 W 7 11 4 6 1015.1 1015.0 0.0
22/01:30am 21.2 23.2 20.7 97 0.3 W 11 11 6 6 1015.3 1015.2 0.0
22/01:19am 21.0 23.2 20.3 96 0.4 WNW 9 11 5 6 1015.3 1015.2 0.0
22/01:00am 22.5 25.5 21.3 93 0.8 ESE 7 9 4 5 1015.3 1015.2 0.0
22/12:59am 22.5 25.5 21.3 93 0.8 ESE 7 9 4 5 1015.3 1015.2 0.0
22/12:30am 22.1 25.6 21.1 94 0.7 ESE 4 7 2 4 1015.7 1015.6 0.0
22/12:23am 22.1 26.3 20.9 93 0.8 CALM 0 0 0 0 1015.6 1015.5 0.0
22/12:00am 22.1 25.8 20.7 92 0.9 ENE 2 6 1 3 1015.9 1015.8 0.0
 
Date/Time
EST
Temp
°C
App
Temp
°C
Dew
Point
°C
Rel
Hum
%
Delta-T
°C
Wind Press
QNH
hPa
Press
MSL
hPa
Rain since
9am
mm
Dir  Spd
km/h
Gust
km/h
Spd
kts
Gust
kts
21/11:47pm 22.7 25.7 21.3 92 0.9 ENE 7 11 4 6 1015.8 1015.7 0.0
21/11:30pm 22.8 25.5 21.4 92 0.9 E 9 11 5 6 1015.9 1015.8 0.0
21/11:00pm 22.8 25.9 21.4 92 0.9 ENE 7 11 4 6 1016.1 1016.0 0.0
21/10:30pm 22.8 25.1 21.3 91 1.0 ENE 11 13 6 7 1016.0 1015.9 0.0
21/10:23pm 22.8 25.0 21.1 90 1.1 ENE 11 13 6 7 1016.0 1015.9 0.0
21/10:00pm 22.8 25.5 21.3 91 1.0 ENE 9 11 5 6 1016.1 1016.0 0.0
21/09:55pm 22.5 24.9 20.8 90 1.1 NE 9 11 5 6 1016.0 1015.9 0.0
21/09:30pm 23.1 25.8 21.4 90 1.1 NE 9 11 5 6 1016.1 1016.0 0.0
21/09:19pm 22.9 24.8 20.6 87 1.5 NE 11 15 6 8 1016.0 1015.9 0.0
21/09:00pm 23.2 24.9 20.9 87 1.5 ENE 13 15 7 8 1015.8 1015.7 0.0
21/08:48pm 23.4 25.2 21.1 87 1.5 NE 13 17 7 9 1015.7 1015.6 0.0
21/08:30pm 23.4 24.8 21.1 87 1.5 ENE 15 17 8 9 1015.7 1015.6 0.0
21/08:00pm 23.1 25.4 20.6 86 1.6 ENE 9 11 5 6 1015.6 1015.5 0.0
21/07:30pm 23.6 24.7 20.5 83 2.0 NE 15 19 8 10 1015.3 1015.2 0.0
21/07:00pm 23.6 24.3 20.5 83 2.0 ENE 17 22 9 12 1015.0 1014.9 0.0
21/06:30pm 23.6 23.5 20.7 84 1.9 ENE 22 28 12 15 1014.6 1014.5 0.0
21/06:00pm 23.9 23.3 20.4 81 2.3 ENE 24 30 13 16 1014.2 1014.1 0.0
21/05:30pm 24.5 23.1 20.4 78 2.7 ENE 28 33 15 18 1013.9 1013.8 0.0
21/05:00pm 25.2 23.8 20.5 75 3.1 ENE 28 33 15 18 1013.7 1013.6 0.0
21/04:30pm 25.6 23.8 20.4 73 3.4 NE 30 33 16 18 1013.3 1013.2 0.0
21/04:00pm 25.8 24.2 20.8 74 3.3 NE 30 37 16 20 1013.2 1013.1 0.0
21/03:30pm 26.7 25.7 21.2 72 3.6 ENE 28 35 15 19 1013.3 1013.2 0.0
21/03:00pm 26.6 24.8 20.4 69 4.1 NE 30 35 16 19 1013.6 1013.5 0.0
21/02:30pm 27.4 25.4 19.2 61 5.3 NE 28 35 15 19 1014.0 1013.9 0.0
21/02:00pm 27.3 25.6 19.9 64 4.8 NE 28 32 15 17 1014.4 1014.3 0.0
21/01:30pm 27.4 26.7 19.5 62 5.1 NE 22 30 12 16 1014.8 1014.7 0.0
21/01:00pm 28.1 27.6 19.9 61 5.4 NE 22 28 12 15 1015.3 1015.2 0.0
21/12:30pm 27.8 27.8 20.1 63 5.0 NE 20 26 11 14 1015.8 1015.7 0.0
21/12:00pm 27.3 26.6 19.6 62 5.0 ENE 22 30 12 16 1016.3 1016.2 0.0
21/11:30am 27.0 27.4 19.9 65 4.6 NE 17 24 9 13 1016.6 1016.5 0.0
21/11:00am 27.2 27.7 19.3 62 5.1 E 15 22 8 12 1017.0 1016.9 0.0
21/10:30am 26.4 27.6 20.7 71 3.7 ENE 15 20 8 11 1017.4 1017.3 0.0
21/10:00am 25.9 26.6 20.5 72 3.5 ENE 17 26 9 14 1017.4 1017.3 0.0
21/09:30am 26.2 27.4 19.8 68 4.2 NE 13 17 7 9 1017.5 1017.4 0.0
21/09:00am 25.8 27.0 20.6 73 3.4 NE 15 19 8 10 1017.4 1017.3 0.2
21/08:30am 25.2 26.5 20.2 74 3.3 NE 13 17 7 9 1017.2 1017.1 0.2
21/08:00am 25.2 27.4 21.1 78 2.7 ENE 11 19 6 10 1016.8 1016.7 0.2
21/07:30am 24.0 26.8 20.9 83 2.0 SE 7 9 4 5 1016.6 1016.5 0.2
21/07:00am 22.4 25.3 21.0 92 0.9 SSW 7 9 4 5 1016.3 1016.2 0.2
21/06:58am 22.3 25.1 20.9 92 0.9 SSW 7 9 4 5 1016.3 1016.2 0.2
21/06:39am 21.1 25.0 20.3 95 0.5 CALM 0 0 0 0 1016.0 1015.9 0.2
21/06:30am 20.6 24.2 19.8 95 0.5 CALM 0 0 0 0 1015.8 1015.7 0.2
21/06:00am 21.1 24.9 20.1 94 0.6 CALM 0 0 0 0 1015.7 1015.6 0.2
21/05:30am 21.3 24.6 19.9 92 0.9 SW 2 7 1 4 1015.4 1015.3 0.2
21/05:00am 20.5 21.7 19.0 91 0.9 ESE 11 13 6 7 1015.3 1015.2 0.2
21/04:30am 21.0 23.3 19.8 93 0.8 ESE 7 9 4 5 1015.1 1015.0 0.2
21/04:03am 21.4 23.4 19.9 91 1.0 ESE 9 11 5 6 1014.9 1014.8 0.2
21/04:00am 21.4 23.4 19.9 91 1.0 ESE 9 11 5 6 1014.9 1014.8 0.2
21/03:45am 21.7 23.8 20.2 91 1.0 E 9 11 5 6 1014.8 1014.7 0.2
21/03:30am 21.6 23.6 19.9 90 1.1 E 9 11 5 6 1014.9 1014.8 0.2
21/03:08am 21.8 23.4 19.9 89 1.2 E 11 13 6 7 1015.0 1014.9 0.2
21/03:00am 22.0 23.7 20.1 89 1.2 ENE 11 15 6 8 1014.9 1014.8 0.2
21/02:35am 22.3 24.0 20.2 88 1.4 ENE 11 13 6 7 1015.0 1014.9 0.2
21/02:30am 22.3 23.9 20.0 87 1.5 ENE 11 13 6 7 1015.0 1014.9 0.2
21/02:20am 22.5 24.2 20.2 87 1.5 ENE 11 15 6 8 1015.1 1015.0 0.2
21/02:00am 22.3 24.1 20.4 89 1.2 ENE 11 15 6 8 1015.3 1015.2 0.2
21/01:32am 22.5 23.8 20.2 87 1.5 ENE 13 17 7 9 1015.5 1015.4 0.2
21/01:30am 22.5 23.8 20.2 87 1.5 ENE 13 17 7 9 1015.5 1015.4 0.2
21/01:02am 22.7 24.0 20.2 86 1.6 ENE 13 17 7 9 1015.8 1015.7 0.2
21/01:00am 22.8 24.2 20.3 86 1.6 ENE 13 17 7 9 1015.8 1015.7 0.2
21/12:51am 22.8 24.2 20.3 86 1.6 ENE 13 17 7 9 1015.8 1015.7 0.2
21/12:30am 22.5 23.6 20.4 88 1.4 ENE 15 17 8 9 1016.0 1015.9 0.2
21/12:00am 22.5 23.5 20.2 87 1.5 ENE 15 19 8 10 1016.1 1016.0 0.2
 
Date/Time
EST
Temp
°C
App
Temp
°C
Dew
Point
°C
Rel
Hum
%
Delta-T
°C
Wind Press
QNH
hPa
Press
MSL
hPa
Rain since
9am
mm
Dir  Spd
km/h
Gust
km/h
Spd
kts
Gust
kts
20/11:30pm 22.6 23.9 20.1 86 1.6 ENE 13 19 7 10 1016.3 1016.2 0.2
20/11:00pm 22.6 23.9 20.1 86 1.6 ENE 13 17 7 9 1016.5 1016.4 0.2
20/10:30pm 23.0 23.5 20.1 84 1.9 ENE 17 20 9 11 1016.6 1016.5 0.2
20/10:00pm 23.1 24.1 20.2 84 1.9 ENE 15 19 8 10 1016.5 1016.4 0.2
20/09:30pm 23.2 23.2 20.2 83 1.9 ENE 20 24 11 13 1016.4 1016.3 0.2
20/09:00pm 23.0 23.6 20.3 85 1.7 ENE 17 24 9 13 1016.1 1016.0 0.2
20/08:30pm 23.0 23.7 20.5 86 1.6 ENE 17 22 9 12 1016.0 1015.9 0.2
20/08:00pm 22.8 23.3 20.1 85 1.7 ENE 17 22 9 12 1015.6 1015.5 0.2
20/07:55pm 22.9 23.6 20.4 86 1.6 ENE 17 24 9 13 1015.6 1015.5 0.2
20/07:30pm 22.9 23.6 20.4 86 1.6 ENE 17 24 9 13 1015.2 1015.1 0.2
20/07:21pm 22.9 23.2 20.4 86 1.6 ENE 19 24 10 13 1015.1 1015.0 0.2
20/07:00pm 23.0 23.6 20.3 85 1.7 ENE 17 22 9 12 1014.9 1014.8 0.2
20/06:30pm 23.0 22.6 20.1 84 1.9 ENE 22 28 12 15 1014.5 1014.4 0.2
20/06:00pm 23.3 23.0 20.4 84 1.9 ENE 22 28 12 15 1014.1 1014.0 0.2
20/05:30pm 23.9 23.2 20.2 80 2.4 ENE 24 33 13 18 1013.8 1013.7 0.2
20/05:00pm 24.5 23.6 20.6 79 2.5 ENE 26 32 14 17 1013.6 1013.5 0.2
20/04:30pm 25.2 24.0 20.9 77 2.8 ENE 28 33 15 18 1013.5 1013.4 0.2
20/04:00pm 25.5 24.4 21.0 76 3.0 ENE 28 33 15 18 1013.3 1013.2 0.2
20/03:30pm 25.7 25.3 20.9 75 3.2 ENE 24 32 13 17 1013.3 1013.2 0.2
20/03:00pm 26.1 25.4 21.1 74 3.3 ENE 26 32 14 17 1013.5 1013.4 0.2
20/02:30pm 26.1 24.8 20.7 72 3.5 ENE 28 32 15 17 1013.8 1013.7 0.2
20/02:00pm 26.6 25.4 20.0 67 4.3 NE 26 33 14 18 1014.2 1014.1 0.2
20/01:30pm 26.5 25.9 20.6 70 3.9 NE 24 30 13 16 1014.7 1014.6 0.2
20/01:00pm 25.9 24.8 19.5 68 4.1 NE 24 30 13 16 1015.2 1015.1 0.2
20/12:30pm 26.5 25.7 20.1 68 4.2 NE 24 30 13 16 1015.4 1015.3 0.2
20/12:00pm 26.7 26.5 20.5 69 4.1 ENE 22 28 12 15 1016.0 1015.9 0.2
20/11:30am 26.4 26.5 20.3 69 4.0 NE 20 26 11 14 1016.4 1016.3 0.2
20/11:00am 26.1 26.7 19.5 67 4.3 NE 15 19 8 10 1017.1 1017.0 0.2
20/10:30am 26.0 26.7 19.6 68 4.1 ENE 15 19 8 10 1017.4 1017.3 0.2
20/10:00am 26.0 26.8 19.9 69 4.0 ENE 15 20 8 11 1017.7 1017.6 0.2
20/09:30am 25.4 26.6 20.0 72 3.5 ENE 13 19 7 10 1017.8 1017.7 0.2
20/09:00am 24.7 25.9 19.8 74 3.2 NE 13 17 7 9 1018.0 1017.9 2.0
20/08:30am 24.4 26.1 20.1 77 2.8 E 11 19 6 10 1017.8 1017.7 2.0
20/08:00am 23.8 25.1 20.1 80 2.4 ESE 13 17 7 9 1017.7 1017.6 2.0
20/07:30am 22.7 23.5 19.9 84 1.8 ESE 15 19 8 10 1017.7 1017.6 2.0
20/07:00am 22.1 24.0 19.8 87 1.5 SE 9 13 5 7 1017.6 1017.5 2.0
20/06:30am 21.2 23.5 19.8 92 0.9 ESE 7 9 4 5 1017.4 1017.3 2.0
20/06:00am 20.6 22.7 19.4 93 0.8 ESE 7 9 4 5 1017.4 1017.3 2.0
20/05:30am 20.9 23.1 19.7 93 0.8 ESE 7 9 4 5 1017.2 1017.1 2.0
20/05:00am 21.1 22.8 20.1 94 0.6 SE 11 15 6 8 1017.2 1017.1 2.0
20/04:30am 21.3 23.0 20.1 93 0.8 ESE 11 15 6 8 1017.1 1017.0 2.0
20/04:00am 21.3 21.9 20.3 94 0.6 ESE 17 26 9 14 1017.4 1017.3 2.0

Other formats

Comma delimited format used in spreadsheet applications
http://www.bom.gov.au/fwo/IDQ60801/IDQ60801.94294.axf

JavaScript Object Notation format (JSON) in row-major order
http://www.bom.gov.au/fwo/IDQ60801/IDQ60801.94294.json

Data quality

Most of these data are generated automatically and are frequently updated. Quality checks on data are not normally performed. It is possible for incorrect values to appear. Refer to information at About Latest Weather Observations and please check the disclaimer before using these data.